Terminal Aerodrome Forecast
Issued by NWS

Home | Current Version | Previous Version | Text Only | Print | Product List | Glossary On
Versions: 1 2 3 4 5 6 7 8 9 10 11 12 13 14 15
000
FTUS43 KDLH 031127
TAFBRD
TAF
KBRD 031127Z 0312/0412 18004KT P6SM SCT050
     FM032000 28008KT P6SM VCSH BKN050
      TEMPO 0320/0323 6SM TSRA BR BKN035CB
     FM040000 35005KT P6SM BKN060=

USA.gov is the U.S. government's official web portal to all federal, state and local government web resources and services.